Data for 11/02/2005

Time Sea-Level Adjusted Pressure Absolute Pressure Temperature Relative Humidity Dew Point   
(mb) (inHg) (mb) (inHg) (C) (F) (%) (C) (F)
00:05 1008 29.77 837 24.72 13.5 56.3 41 0.4 32.8
00:10 1008 29.77 837 24.72 13.3 56 41 0.5 32.9
00:15 1008 29.77 837 24.72 13.5 56.2 39 0 32
00:20 1008 29.77 837 24.72 13.8 56.8 41 0.9 33.6
00:25 1009 29.8 838 24.75 13.1 55.5 46 1.9 35.4
00:30 1009 29.8 838 24.75 10.8 51.5 56 2.5 36.5
00:35 1009 29.8 838 24.75 9.5 49.1 60 2.1 35.8
00:40 1010 29.83 839 24.78 8.8 47.9 64 2.4 36.3
00:45 1010 29.83 839 24.78 8.3 47 67 2.5 36.6
00:50 1010 29.83 839 24.78 7.9 46.2 69 2.5 36.5
00:55 1010 29.83 839 24.78 7.5 45.5 70 2.4 36.2
01:00 1011 29.85 840 24.81 7 44.6 73 2.5 36.5
01:05 1011 29.85 840 24.81 6.6 43.8 77 2.8 37
01:10 1011 29.85 840 24.81 6.3 43.3 80 3.1 37.6
01:15 1011 29.85 840 24.81 6 42.7 82 3.2 37.7
01:20 1011 29.85 840 24.81 5.8 42.5 82 3 37.4
01:25 1011 29.85 841 24.83 5.8 42.4 82 2.9 37.2
01:30 1012 29.88 841 24.83 5.7 42.2 80 2.6 36.6
01:35 1012 29.88 841 24.83 5.6 42.1 80 2.5 36.5
01:40 1012 29.88 841 24.83 5.4 41.8 82 2.6 36.6
01:45 1012 29.88 841 24.83 5.4 41.7 82 2.5 36.6
01:50 1012 29.88 841 24.83 5.2 41.3 84 2.7 36.8
01:55 1012 29.88 841 24.83 5.1 41.2 85 2.8 37.1
02:00 1012 29.88 842 24.86 5 41 86 2.8 37
02:05 1013 29.91 842 24.86 4.9 40.8 86 2.8 37.1
02:10 1013 29.91 842 24.86 4.8 40.6 88 2.9 37.2
02:15 1013 29.91 842 24.86 4.6 40.3 88 2.8 37
02:20 1013 29.91 842 24.86 4.4 39.8 86 2.2 36
02:25 1013 29.91 842 24.86 4 39.2 88 2.2 36
02:30 1013 29.91 842 24.86 3.8 38.8 89 2.1 35.8
02:35 1013 29.91 842 24.86 3.6 38.5 90 2.1 35.8
02:40 1013 29.91 842 24.86 3.3 37.9 91 1.9 35.4
02:45 1013 29.91 842 24.86 3 37.5 92 1.9 35.4
02:50 1013 29.91 842 24.86 2.9 37.2 93 1.8 35.3
02:55 1013 29.91 842 24.86 2.6 36.7 92 1.4 34.6
03:00 1013 29.91 842 24.86 2.4 36.4 93 1.4 34.5
03:05 1013 29.91 842 24.86 2.4 36.4 93 1.4 34.6
03:10 1013 29.91 842 24.86 2.4 36.3 93 1.4 34.6
03:15 1013 29.91 842 24.86 2.2 36 95 1.4 34.6
03:20 1013 29.91 842 24.86 2.2 36 94 1.4 34.4
03:25 1013 29.91 842 24.86 2.2 36 94 1.4 34.4
03:30 1013 29.91 842 24.86 2.1 35.8 94 1.3 34.3
03:35 1013 29.91 842 24.86 2.1 35.8 95 1.4 34.6
03:40 1013 29.91 842 24.86 2.1 35.7 95 1.3 34.4
03:45 1013 29.91 842 24.86 2 35.6 95 1.3 34.3
03:50 1013 29.91 842 24.86 2 35.6 95 1.3 34.3
03:55 1013 29.91 842 24.86 2.1 35.8 95 1.4 34.4
04:00 1013 29.91 842 24.86 2.2 35.9 96 1.6 34.8
04:05 1013 29.91 842 24.86 2.3 36.2 94 1.4 34.6
04:10 1013 29.91 842 24.86 2.3 36.1 94 1.4 34.5
04:15 1013 29.91 842 24.86 2.2 35.9 96 1.6 34.8
04:20 1013 29.91 842 24.86 2.1 35.9 96 1.5 34.8
04:25 1013 29.91 842 24.86 2.2 35.9 96 1.5 34.7
04:30 1013 29.91 842 24.86 2.1 35.7 96 1.5 34.6
04:35 1013 29.91 842 24.86 2.1 35.8 96 1.5 34.8
04:40 1013 29.91 842 24.86 2.2 36 96 1.6 34.9
04:45 1013 29.91 843 24.89 2.2 36 96 1.6 34.9
04:50 1013 29.91 843 24.89 2.1 35.8 95 1.4 34.5
04:55 1013 29.91 843 24.89 2 35.5 95 1.2 34.2
05:00 1013 29.91 843 24.89 1.9 35.5 94 1.1 34
05:05 1014 29.94 843 24.89 1.8 35.3 96 1.2 34.2
05:10 1014 29.94 843 24.89 1.9 35.4 96 1.3 34.3
05:15 1014 29.94 843 24.89 1.9 35.4 95 1.2 34.2
05:20 1014 29.94 843 24.89 1.9 35.4 96 1.3 34.3
05:25 1014 29.94 843 24.89 2.1 35.7 94 1.3 34.3
05:30 1014 29.94 843 24.89 2.1 35.7 93 1.1 34
05:35 1014 29.94 843 24.89 1.8 35.3 93 0.8 33.4
05:40 1014 29.94 843 24.89 1.4 34.4 95 0.6 33.1
05:45 1014 29.94 843 24.89 1 33.8 96 0.5 32.8
05:50 1014 29.94 843 24.89 0.8 33.4 97 0.4 32.7
05:55 1014 29.94 843 24.89 0.7 33.3 97 0.3 32.6
06:00 1014 29.94 843 24.89 0.5 32.9 98 0.2 32.4
06:05 1014 29.94 843 24.89 0.5 32.9 99 0.3 32.6
06:10 1014 29.94 843 24.89 0.5 33 99 0.3 32.6
06:15 1014 29.94 843 24.89 0.5 32.9 99 0.3 32.6
06:20 1014 29.94 843 24.89 0.6 33 99 0.4 32.7
06:25 1014 29.94 843 24.89 0.5 32.9 99 0.3 32.6
06:30 1014 29.94 843 24.89 0.6 33 99 0.4 32.8
06:35 1014 29.94 843 24.89 0.7 33.3 99 0.5 33
06:40 1014 29.94 843 24.89 0.8 33.5 98 0.6 33
06:45 1014 29.94 843 24.89 0.9 33.6 98 0.6 33
06:50 1014 29.94 843 24.89 1 33.9 98 0.7 33.3
06:55 1014 29.94 843 24.89 1.1 34 97 0.7 33.3
07:00 1014 29.94 843 24.89 1.2 34.2 96 0.7 33.3
07:05 1014 29.94 843 24.89 1.4 34.5 96 0.8 33.4
07:10 1014 29.94 843 24.89 1.6 34.8 95 0.9 33.6
07:15 1014 29.94 844 24.92 1.7 35 94 0.9 33.6
07:20 1014 29.94 844 24.92 1.8 35.2 94 0.9 33.7
07:25 1014 29.94 843 24.89 1.8 35.2 94 0.9 33.7
07:30 1014 29.94 844 24.92 1.9 35.5 93 1 33.7
07:35 1015 29.97 844 24.92 1.9 35.5 92 0.8 33.5
07:40 1014 29.94 844 24.92 2 35.6 93 0.9 33.7
07:45 1014 29.94 844 24.92 2.1 35.7 93 1.1 33.9
07:50 1014 29.94 844 24.92 1.9 35.3 94 1 33.8
07:55 1014 29.94 844 24.92 1.7 35 95 0.9 33.6
08:00 1015 29.97 844 24.92 1.7 35 95 1 33.8
08:05 1015 29.97 844 24.92 1.7 35.1 95 1 33.9
08:10 1015 29.97 844 24.92 1.8 35.3 95 1.1 33.9
08:15 1015 29.97 844 24.92 1.9 35.3 95 1.1 34
08:20 1015 29.97 844 24.92 1.8 35.2 95 1 33.8
08:25 1015 29.97 844 24.92 1.8 35.2 95 1.1 33.9
08:30 1015 29.97 844 24.92 1.8 35.2 95 1.1 33.9
08:35 1015 29.97 844 24.92 1.7 35.1 95 1 33.7
08:40 1015 29.97 844 24.92 1.6 34.8 96 1 33.7
08:45 1014 29.94 844 24.92 1.4 34.4 97 0.9 33.6
08:50 1014 29.94 844 24.92 1.4 34.5 96 0.9 33.5
08:55 1014 29.94 844 24.92 1.3 34.4 97 0.8 33.5
09:00 1015 29.97 844 24.92 1.5 34.8 96 1 33.8
09:05 1015 29.97 844 24.92 1.7 35 95 1 33.8
09:10 1015 29.97 844 24.92 1.8 35.2 95 1 33.9
09:15 1015 29.97 844 24.92 1.7 35.1 95 1 33.9
09:20 1015 29.97 844 24.92 1.8 35.2 95 1.1 34
09:25 1015 29.97 844 24.92 1.9 35.4 96 1.2 34.2
09:30 1015 29.97 844 24.92 2 35.6 95 1.3 34.3
09:35 1015 29.97 844 24.92 1.7 35 96 1.1 33.9
09:40 1015 29.97 844 24.92 1.5 34.8 97 1 33.9
09:45 1015 29.97 844 24.92 1.6 34.9 95 1 33.8
09:50 1015 29.97 844 24.92 1.9 35.3 95 1.2 34.1
09:55 1015 29.97 844 24.92 2 35.7 94 1.2 34.1
10:00 1015 29.97 844 24.92 2.2 36 94 1.4 34.5
10:05 1015 29.97 844 24.92 2.4 36.4 93 1.4 34.5
10:10 1015 29.97 844 24.92 2.5 36.5 92 1.4 34.4
10:15 1015 29.97 844 24.92 2.4 36.4 92 1.3 34.3
10:20 1015 29.97 844 24.92 2.4 36.4 93 1.4 34.5
10:25 1015 29.97 844 24.92 2.6 36.7 92 1.5 34.7
10:30 1015 29.97 844 24.92 2.7 36.8 91 1.4 34.5
10:35 1015 29.97 844 24.92 2.7 36.9 91 1.3 34.4
10:40 1015 29.97 844 24.92 2.9 37.2 90 1.5 34.7
10:45 1015 29.97 844 24.92 3.1 37.6 90 1.6 34.8
10:50 1015 29.97 844 24.92 3.1 37.7 89 1.5 34.6
10:55 1015 29.97 844 24.92 3.2 37.8 91 1.9 35.4
11:00 1015 29.97 844 24.92 3.5 38.3 90 2 35.7
11:05 1014 29.94 844 24.92 3.5 38.3 89 1.8 35.3
11:10 1014 29.94 844 24.92 3.4 38.1 89 1.8 35.2
11:15 1014 29.94 843 24.89 3.3 37.9 90 1.8 35.2
11:20 1014 29.94 844 24.92 3.3 37.9 89 1.7 35.1
11:25 1014 29.94 843 24.89 3.5 38.3 88 1.7 35.1
11:30 1014 29.94 843 24.89 3.6 38.5 84 1.1 34.1
11:35 1014 29.94 843 24.89 3.7 38.6 85 1.4 34.5
11:40 1014 29.94 843 24.89 3.7 38.6 84 1.2 34.2
11:45 1014 29.94 843 24.89 3.7 38.6 85 1.4 34.4
11:50 1014 29.94 843 24.89 3.8 38.8 85 1.5 34.7
11:55 1014 29.94 843 24.89 3.9 38.9 82 1.1 34
12:00 1014 29.94 843 24.89 3.7 38.7 83 1 33.8
12:05 1014 29.94 843 24.89 3.7 38.6 85 1.4 34.4
12:10 1014 29.94 843 24.89 3.9 39 84 1.5 34.6
12:15 1014 29.94 843 24.89 4.1 39.4 85 1.9 35.3
12:20 1014 29.94 843 24.89 4.2 39.6 82 1.5 34.7
12:25 1014 29.94 843 24.89 4.2 39.5 84 1.6 34.9
12:30 1014 29.94 843 24.89 4.2 39.5 83 1.6 34.9
12:35 1014 29.94 843 24.89 4.2 39.5 82 1.4 34.6
12:40 1014 29.94 843 24.89 4.1 39.3 81 1.2 34.1
12:45 1014 29.94 843 24.89 4 39.1 83 1.3 34.4
12:50 1014 29.94 843 24.89 3.9 39.1 85 1.7 35
12:55 1014 29.94 843 24.89 4 39.2 84 1.5 34.7
13:00 1014 29.94 843 24.89 4.1 39.4 84 1.7 35.1
13:05 1013 29.91 843 24.89 4.2 39.6 84 1.7 35.1
13:10 1013 29.91 843 24.89 4.3 39.7 83 1.6 35
13:15 1013 29.91 843 24.89 4.2 39.5 84 1.7 35.1
13:20 1013 29.91 842 24.86 4.2 39.5 85 1.9 35.4
13:25 1013 29.91 842 24.86 4.2 39.6 85 2 35.5
13:30 1013 29.91 842 24.86 4.1 39.5 84 1.6 34.9
13:35 1013 29.91 842 24.86 3.7 38.7 87 1.7 35.1
13:40 1013 29.91 842 24.86 3.6 38.5 86 1.6 34.8
13:45 1013 29.91 842 24.86 3.6 38.5 87 1.7 35
13:50 1013 29.91 842 24.86 3.5 38.3 87 1.5 34.7
13:55 1013 29.91 842 24.86 3.4 38.1 89 1.7 35.1
14:00 1013 29.91 842 24.86 3.8 38.8 88 2 35.5
14:05 1013 29.91 842 24.86 3.8 38.8 89 2.1 35.7
14:10 1013 29.91 842 24.86 3.5 38.3 87 1.6 34.9
14:15 1013 29.91 842 24.86 3.8 38.9 88 1.9 35.5
14:20 1013 29.91 842 24.86 4.1 39.3 89 2.4 36.3
14:25 1012 29.88 842 24.86 4 39.3 87 2.1 35.8
14:30 1012 29.88 842 24.86 3.9 39 89 2.2 35.9
14:35 1012 29.88 842 24.86 4.1 39.4 89 2.4 36.4
14:40 1012 29.88 841 24.83 4.3 39.8 86 2.2 36
14:45 1012 29.88 841 24.83 4.2 39.6 86 2.1 35.8
14:50 1012 29.88 841 24.83 4.2 39.6 87 2.2 35.9
14:55 1012 29.88 841 24.83 4.2 39.5 85 1.9 35.4
15:00 1012 29.88 841 24.83 3.9 39.1 87 2 35.7
15:05 1012 29.88 841 24.83 3.8 38.9 88 2 35.6
15:10 1012 29.88 841 24.83 3.9 39.1 87 2 35.6
15:15 1012 29.88 841 24.83 3.9 39 88 2 35.7
15:20 1012 29.88 841 24.83 4 39.1 89 2.3 36.1
15:25 1012 29.88 841 24.83 4.2 39.5 87 2.2 36
15:30 1012 29.88 841 24.83 4.1 39.3 88 2.3 36.1
15:35 1012 29.88 841 24.83 4.1 39.3 86 2 35.6
15:40 1012 29.88 841 24.83 3.9 39 88 2.1 35.7
15:45 1012 29.88 841 24.83 3.9 39 89 2.2 35.9
15:50 1012 29.88 841 24.83 4 39.2 88 2.2 36
15:55 1012 29.88 841 24.83 4 39.2 86 1.9 35.4
16:00 1012 29.88 841 24.83 4.1 39.4 89 2.6 36.6
16:05 1012 29.88 841 24.83 4.1 39.4 88 2.3 36.2
16:10 1012 29.88 841 24.83 4.3 39.8 87 2.4 36.3
16:15 1012 29.88 841 24.83 4.3 39.8 89 2.7 36.8
16:20 1012 29.88 841 24.83 4.3 39.7 89 2.6 36.7
16:25 1012 29.88 841 24.83 4.4 39.9 88 2.5 36.5
16:30 1012 29.88 841 24.83 4.4 39.9 88 2.7 36.8
16:35 1012 29.88 841 24.83 4.3 39.8 89 2.6 36.8
16:40 1012 29.88 841 24.83 4.2 39.5 90 2.6 36.7
16:45 1011 29.85 841 24.83 4.1 39.4 90 2.6 36.7
16:50 1011 29.85 841 24.83 4.1 39.3 90 2.6 36.7
16:55 1011 29.85 841 24.83 4.1 39.3 92 2.9 37.2
17:00 1011 29.85 841 24.83 3.9 39 93 2.9 37.1
17:05 1011 29.85 841 24.83 3.8 38.9 94 2.9 37.2
17:10 1011 29.85 840 24.81 3.8 38.8 93 2.8 37
17:15 1011 29.85 840 24.81 3.7 38.7 94 2.8 37
17:20 1011 29.85 840 24.81 3.8 38.8 94 2.8 37.1
17:25 1011 29.85 840 24.81 3.7 38.7 93 2.6 36.7
17:30 1011 29.85 840 24.81 3.6 38.5 93 2.5 36.5
17:35 1011 29.85 840 24.81 3.6 38.5 92 2.5 36.5
17:40 1011 29.85 840 24.81 3.6 38.4 92 2.3 36.2
17:45 1011 29.85 840 24.81 3.4 38.2 92 2.3 36.1
17:50 1011 29.85 840 24.81 3.4 38 91 2.1 35.7
17:55 1011 29.85 840 24.81 3.3 38 91 2 35.6
18:00 1011 29.85 840 24.81 3.3 38 91 2 35.5
18:05 1011 29.85 840 24.81 3.4 38 89 1.7 35.1
18:10 1011 29.85 840 24.81 3.4 38.1 89 1.7 35.1
18:15 1010 29.83 840 24.81 3.4 38.1 89 1.8 35.2
18:20 1010 29.83 840 24.81 3.3 38 90 1.8 35.2
18:25 1010 29.83 840 24.81 3.2 37.7 90 1.7 35.1
18:30 1010 29.83 839 24.78 3.2 37.7 90 1.7 35
18:35 1010 29.83 839 24.78 3.1 37.6 91 1.7 35.1
18:40 1010 29.83 839 24.78 3 37.4 91 1.6 35
18:45 1010 29.83 839 24.78 2.9 37.3 92 1.7 35.1
18:50 1010 29.83 839 24.78 2.8 37 92 1.6 34.8
18:55 1010 29.83 839 24.78 2.8 37 90 1.3 34.4
19:00 1010 29.83 839 24.78 2.7 36.9 91 1.4 34.5
19:05 1010 29.83 839 24.78 2.6 36.7 91 1.2 34.2
19:10 1010 29.83 839 24.78 2.5 36.6 90 1.1 34
19:15 1010 29.83 839 24.78 2.5 36.5 90 1.1 33.9
19:20 1009 29.8 838 24.75 2.5 36.6 90 1 33.8
19:25 1009 29.8 838 24.75 2.4 36.4 90 1 33.8
19:30 1009 29.8 838 24.75 2.4 36.4 90 1 33.8
19:35 1009 29.8 838 24.75 2.4 36.3 90 0.9 33.6
19:40 1009 29.8 838 24.75 2.3 36.2 90 0.8 33.5
19:45 1009 29.8 838 24.75 2.4 36.3 89 0.7 33.3
19:50 1009 29.8 838 24.75 2.4 36.3 88 0.6 33.1
19:55 1009 29.8 838 24.75 2.4 36.3 87 0.5 32.9
20:00 1009 29.8 838 24.75 2.4 36.3 87 0.5 32.9
20:05 1009 29.8 838 24.75 2.4 36.3 88 0.5 32.9
20:10 1009 29.8 838 24.75 2.4 36.3 87 0.5 32.9
20:15 1009 29.8 838 24.75 2.4 36.2 88 0.5 32.9
20:20 1009 29.8 838 24.75 2.3 36.2 87 0.4 32.8
20:25 1009 29.8 838 24.75 2.3 36.2 88 0.5 32.8
20:30 1009 29.8 838 24.75 2.3 36.1 89 0.6 33
20:35 1009 29.8 838 24.75 2.2 35.9 89 0.5 33
20:40 1009 29.8 838 24.75 2 35.7 90 0.5 32.9
20:45 1009 29.8 838 24.75 2 35.6 90 0.6 33
20:50 1009 29.8 838 24.75 2 35.5 90 0.5 32.9
20:55 1009 29.8 838 24.75 2 35.6 90 0.5 32.9
21:00 1008 29.77 838 24.75 2 35.6 89 0.4 32.7
21:05 1008 29.77 837 24.72 2.1 35.7 88 0.3 32.6
21:10 1008 29.77 837 24.72 2.2 36 88 0.4 32.7
21:15 1008 29.77 837 24.72 2.3 36.1 86 0.2 32.3
21:20 1008 29.77 837 24.72 2.2 36 85 0 32.1
21:25 1008 29.77 837 24.72 2.3 36.1 85 0.1 32.1
21:30 1008 29.77 837 24.72 2.3 36.1 84 -0.1 31.8
21:35 1008 29.77 837 24.72 2.4 36.2 83 -0.2 31.7
21:40 1007 29.74 837 24.72 2.4 36.3 83 -0.2 31.6
21:45 1007 29.74 836 24.69 2.4 36.2 83 -0.3 31.5
21:50 1007 29.74 836 24.69 2.3 36.2 85 -0 32
21:55 1007 29.74 836 24.69 2.2 36 84 -0.2 31.7
22:00 1007 29.74 836 24.69 2.2 36 85 -0.1 31.8
22:05 1007 29.74 836 24.69 2.1 35.8 85 -0.1 31.8
22:10 1006 29.71 835 24.66 2.1 35.7 86 -0.1 31.9
22:15 1006 29.71 835 24.66 2 35.6 87 0 32.1
22:20 1006 29.71 835 24.66 2 35.6 87 0.1 32.2
22:25 1006 29.71 835 24.66 1.9 35.5 88 0.2 32.3
22:30 1006 29.71 835 24.66 2 35.6 88 0.2 32.4
22:35 1006 29.71 835 24.66 2 35.7 88 0.3 32.5
22:40 1006 29.71 835 24.66 2.1 35.7 88 0.2 32.4
22:45 1006 29.71 835 24.66 2.3 36.1 87 0.3 32.5
22:50 1006 29.71 835 24.66 2.4 36.3 87 0.4 32.6
22:55 1006 29.71 835 24.66 2.3 36.2 87 0.4 32.8
23:00 1006 29.71 835 24.66 2.2 36 87 0.3 32.6
23:05 1006 29.71 835 24.66 2.1 35.8 88 0.3 32.6
23:10 1006 29.71 835 24.66 2.2 35.9 88 0.4 32.7
23:15 1006 29.71 835 24.66 2.1 35.8 88 0.3 32.6
23:20 1006 29.71 835 24.66 2.2 36 88 0.4 32.8
23:25 1006 29.71 835 24.66 2.2 35.9 88 0.3 32.6
23:30 1006 29.71 835 24.66 2.1 35.8 88 0.4 32.7
23:35 1006 29.71 835 24.66 2.2 36 88 0.4 32.8
23:40 1006 29.71 836 24.69 2.2 36 88 0.4 32.8
23:45 1007 29.74 836 24.69 2.1 35.9 91 0.8 33.5
23:50 1007 29.74 836 24.69 2 35.5 93 0.9 33.7
23:55 1007 29.74 836 24.69 2 35.6 93 1.1 33.9
24:00 1007 29.74 836 24.69 2 35.5 95 1.2 34.1